sensor_id;sensor_type;location;lat;lon;timestamp;P1;durP1;ratioP1;P2;durP2;ratioP2
8716;SDS011;4395;48.554;8.820;2023-05-07T00:01:37;5.20;;;2.67;;
8716;SDS011;4395;48.554;8.820;2023-05-07T00:03:40;2.87;;;2.60;;
8716;SDS011;4395;48.554;8.820;2023-05-07T00:05:43;2.73;;;2.50;;
8716;SDS011;4395;48.554;8.820;2023-05-07T00:07:46;3.87;;;2.37;;
8716;SDS011;4395;48.554;8.820;2023-05-07T00:09:49;3.50;;;2.40;;
8716;SDS011;4395;48.554;8.820;2023-05-07T00:11:53;3.47;;;2.80;;
8716;SDS011;4395;48.554;8.820;2023-05-07T00:13:56;3.33;;;2.63;;
8716;SDS011;4395;48.554;8.820;2023-05-07T00:15:59;2.80;;;2.60;;
8716;SDS011;4395;48.554;8.820;2023-05-07T00:18:01;3.40;;;2.60;;
8716;SDS011;4395;48.554;8.820;2023-05-07T00:20:05;3.17;;;2.87;;
8716;SDS011;4395;48.554;8.820;2023-05-07T00:22:08;4.13;;;2.80;;
8716;SDS011;4395;48.554;8.820;2023-05-07T00:24:11;3.13;;;2.93;;
8716;SDS011;4395;48.554;8.820;2023-05-07T00:26:14;3.57;;;2.50;;
8716;SDS011;4395;48.554;8.820;2023-05-07T00:28:19;3.23;;;2.93;;
8716;SDS011;4395;48.554;8.820;2023-05-07T00:30:22;4.10;;;3.10;;
8716;SDS011;4395;48.554;8.820;2023-05-07T00:32:24;4.20;;;2.97;;
8716;SDS011;4395;48.554;8.820;2023-05-07T00:34:27;3.30;;;3.00;;
8716;SDS011;4395;48.554;8.820;2023-05-07T00:36:31;4.87;;;3.03;;
8716;SDS011;4395;48.554;8.820;2023-05-07T00:38:33;3.20;;;2.90;;
8716;SDS011;4395;48.554;8.820;2023-05-07T00:40:36;3.47;;;2.70;;
8716;SDS011;4395;48.554;8.820;2023-05-07T00:42:39;3.43;;;2.90;;
8716;SDS011;4395;48.554;8.820;2023-05-07T00:44:43;3.87;;;3.33;;
8716;SDS011;4395;48.554;8.820;2023-05-07T00:46:46;4.63;;;4.20;;
8716;SDS011;4395;48.554;8.820;2023-05-07T00:48:51;4.17;;;3.77;;
8716;SDS011;4395;48.554;8.820;2023-05-07T00:50:56;4.33;;;3.07;;
8716;SDS011;4395;48.554;8.820;2023-05-07T00:52:59;2.80;;;2.60;;
8716;SDS011;4395;48.554;8.820;2023-05-07T00:55:04;3.17;;;2.90;;
8716;SDS011;4395;48.554;8.820;2023-05-07T00:57:09;3.87;;;2.53;;
8716;SDS011;4395;48.554;8.820;2023-05-07T00:59:12;4.63;;;3.00;;
8716;SDS011;4395;48.554;8.820;2023-05-07T01:01:17;3.10;;;2.90;;
8716;SDS011;4395;48.554;8.820;2023-05-07T01:03:20;2.50;;;2.30;;
8716;SDS011;4395;48.554;8.820;2023-05-07T01:05:24;3.60;;;2.67;;
8716;SDS011;4395;48.554;8.820;2023-05-07T01:07:29;2.83;;;2.63;;
8716;SDS011;4395;48.554;8.820;2023-05-07T01:09:32;3.77;;;2.33;;
8716;SDS011;4395;48.554;8.820;2023-05-07T01:11:37;5.27;;;3.10;;
8716;SDS011;4395;48.554;8.820;2023-05-07T01:13:40;4.70;;;3.00;;
8716;SDS011;4395;48.554;8.820;2023-05-07T01:15:44;3.20;;;2.90;;
8716;SDS011;4395;48.554;8.820;2023-05-07T01:17:48;4.43;;;3.00;;
8716;SDS011;4395;48.554;8.820;2023-05-07T01:19:58;2.90;;;2.70;;
8716;SDS011;4395;48.554;8.820;2023-05-07T01:22:02;3.20;;;2.80;;
8716;SDS011;4395;48.554;8.820;2023-05-07T01:24:19;4.30;;;2.83;;
8716;SDS011;4395;48.554;8.820;2023-05-07T01:26:22;4.40;;;2.70;;
8716;SDS011;4395;48.554;8.820;2023-05-07T01:28:25;2.80;;;2.60;;
8716;SDS011;4395;48.554;8.820;2023-05-07T01:30:31;2.60;;;2.40;;
8716;SDS011;4395;48.554;8.820;2023-05-07T01:32:40;3.30;;;3.00;;
8716;SDS011;4395;48.554;8.820;2023-05-07T01:34:46;3.97;;;3.10;;
8716;SDS011;4395;48.554;8.820;2023-05-07T01:36:52;3.00;;;2.80;;
8716;SDS011;4395;48.554;8.820;2023-05-07T01:38:56;4.40;;;2.80;;
8716;SDS011;4395;48.554;8.820;2023-05-07T01:41:02;5.03;;;2.67;;
8716;SDS011;4395;48.554;8.820;2023-05-07T01:43:06;4.10;;;3.30;;
8716;SDS011;4395;48.554;8.820;2023-05-07T01:45:11;4.63;;;3.37;;
8716;SDS011;4395;48.554;8.820;2023-05-07T01:47:14;3.57;;;2.90;;
8716;SDS011;4395;48.554;8.820;2023-05-07T01:49:18;3.17;;;2.93;;
8716;SDS011;4395;48.554;8.820;2023-05-07T01:51:21;4.27;;;2.83;;
8716;SDS011;4395;48.554;8.820;2023-05-07T01:53:26;4.07;;;3.20;;
8716;SDS011;4395;48.554;8.820;2023-05-07T01:55:29;3.30;;;3.00;;
8716;SDS011;4395;48.554;8.820;2023-05-07T01:57:34;4.10;;;3.67;;
8716;SDS011;4395;48.554;8.820;2023-05-07T01:59:37;5.43;;;4.17;;
8716;SDS011;4395;48.554;8.820;2023-05-07T02:01:39;4.53;;;4.00;;
8716;SDS011;4395;48.554;8.820;2023-05-07T02:03:44;7.67;;;6.30;;
8716;SDS011;4395;48.554;8.820;2023-05-07T02:05:54;5.53;;;4.20;;
8716;SDS011;4395;48.554;8.820;2023-05-07T02:08:07;3.63;;;3.03;;
8716;SDS011;4395;48.554;8.820;2023-05-07T02:10:10;6.87;;;3.50;;
8716;SDS011;4395;48.554;8.820;2023-05-07T02:12:13;3.90;;;3.60;;
8716;SDS011;4395;48.554;8.820;2023-05-07T02:14:17;4.50;;;3.30;;
8716;SDS011;4395;48.554;8.820;2023-05-07T02:16:21;3.47;;;3.17;;
8716;SDS011;4395;48.554;8.820;2023-05-07T02:18:25;3.73;;;3.17;;
8716;SDS011;4395;48.554;8.820;2023-05-07T02:20:28;3.93;;;3.40;;
8716;SDS011;4395;48.554;8.820;2023-05-07T02:22:30;3.60;;;3.10;;
8716;SDS011;4395;48.554;8.820;2023-05-07T02:24:33;4.10;;;3.20;;
8716;SDS011;4395;48.554;8.820;2023-05-07T02:26:36;6.03;;;3.27;;
8716;SDS011;4395;48.554;8.820;2023-05-07T02:28:39;3.07;;;2.77;;
8716;SDS011;4395;48.554;8.820;2023-05-07T02:30:43;3.57;;;3.23;;
8716;SDS011;4395;48.554;8.820;2023-05-07T02:32:46;3.47;;;3.13;;
8716;SDS011;4395;48.554;8.820;2023-05-07T02:34:49;4.67;;;2.83;;
8716;SDS011;4395;48.554;8.820;2023-05-07T02:36:52;3.17;;;2.97;;
8716;SDS011;4395;48.554;8.820;2023-05-07T02:38:58;3.87;;;2.90;;
8716;SDS011;4395;48.554;8.820;2023-05-07T02:41:02;2.90;;;2.70;;
8716;SDS011;4395;48.554;8.820;2023-05-07T02:43:05;3.50;;;2.97;;
8716;SDS011;4395;48.554;8.820;2023-05-07T02:45:08;3.27;;;3.07;;
8716;SDS011;4395;48.554;8.820;2023-05-07T02:47:14;3.30;;;3.00;;
8716;SDS011;4395;48.554;8.820;2023-05-07T02:49:18;4.07;;;3.67;;
8716;SDS011;4395;48.554;8.820;2023-05-07T02:51:22;5.43;;;3.70;;
8716;SDS011;4395;48.554;8.820;2023-05-07T02:53:28;3.20;;;2.90;;
8716;SDS011;4395;48.554;8.820;2023-05-07T02:55:31;4.00;;;3.20;;
8716;SDS011;4395;48.554;8.820;2023-05-07T02:57:34;3.40;;;3.10;;
8716;SDS011;4395;48.554;8.820;2023-05-07T02:59:37;3.37;;;3.00;;
8716;SDS011;4395;48.554;8.820;2023-05-07T03:01:40;4.00;;;2.73;;
8716;SDS011;4395;48.554;8.820;2023-05-07T03:03:47;3.47;;;3.17;;
8716;SDS011;4395;48.554;8.820;2023-05-07T03:05:50;6.57;;;3.10;;
8716;SDS011;4395;48.554;8.820;2023-05-07T03:07:53;8.23;;;3.40;;
8716;SDS011;4395;48.554;8.820;2023-05-07T03:09:56;3.00;;;2.80;;
8716;SDS011;4395;48.554;8.820;2023-05-07T03:12:00;5.47;;;3.20;;
8716;SDS011;4395;48.554;8.820;2023-05-07T03:14:03;4.20;;;2.90;;
8716;SDS011;4395;48.554;8.820;2023-05-07T03:16:06;3.00;;;2.80;;
8716;SDS011;4395;48.554;8.820;2023-05-07T03:18:09;5.38;;;3.17;;
8716;SDS011;4395;48.554;8.820;2023-05-07T03:20:14;3.33;;;3.00;;
8716;SDS011;4395;48.554;8.820;2023-05-07T03:22:17;3.37;;;3.07;;
8716;SDS011;4395;48.554;8.820;2023-05-07T03:24:20;3.42;;;2.80;;
8716;SDS011;4395;48.554;8.820;2023-05-07T03:26:23;4.17;;;2.93;;
8716;SDS011;4395;48.554;8.820;2023-05-07T03:28:26;3.53;;;2.83;;
8716;SDS011;4395;48.554;8.820;2023-05-07T03:30:33;3.40;;;3.10;;
8716;SDS011;4395;48.554;8.820;2023-05-07T03:32:36;3.60;;;3.13;;
8716;SDS011;4395;48.554;8.820;2023-05-07T03:34:43;3.57;;;3.20;;
8716;SDS011;4395;48.554;8.820;2023-05-07T03:36:48;4.40;;;3.20;;
8716;SDS011;4395;48.554;8.820;2023-05-07T03:38:52;3.20;;;2.92;;
8716;SDS011;4395;48.554;8.820;2023-05-07T03:40:58;3.50;;;3.20;;
8716;SDS011;4395;48.554;8.820;2023-05-07T03:43:02;3.50;;;3.20;;
8716;SDS011;4395;48.554;8.820;2023-05-07T03:45:07;3.50;;;3.20;;
8716;SDS011;4395;48.554;8.820;2023-05-07T03:47:13;3.60;;;3.30;;
8716;SDS011;4395;48.554;8.820;2023-05-07T03:49:17;3.40;;;3.10;;
8716;SDS011;4395;48.554;8.820;2023-05-07T03:51:20;3.40;;;3.17;;
8716;SDS011;4395;48.554;8.820;2023-05-07T03:53:24;4.00;;;3.60;;
8716;SDS011;4395;48.554;8.820;2023-05-07T03:55:27;3.70;;;3.40;;
8716;SDS011;4395;48.554;8.820;2023-05-07T03:57:33;5.90;;;3.40;;
8716;SDS011;4395;48.554;8.820;2023-05-07T03:59:36;4.33;;;3.93;;
8716;SDS011;4395;48.554;8.820;2023-05-07T04:01:40;7.30;;;3.30;;
8716;SDS011;4395;48.554;8.820;2023-05-07T04:03:48;3.20;;;3.00;;
8716;SDS011;4395;48.554;8.820;2023-05-07T04:05:51;5.40;;;3.10;;
8716;SDS011;4395;48.554;8.820;2023-05-07T04:07:55;3.80;;;3.40;;
8716;SDS011;4395;48.554;8.820;2023-05-07T04:10:05;3.60;;;3.30;;
8716;SDS011;4395;48.554;8.820;2023-05-07T04:12:08;3.90;;;3.17;;
8716;SDS011;4395;48.554;8.820;2023-05-07T04:14:12;4.67;;;3.27;;
8716;SDS011;4395;48.554;8.820;2023-05-07T04:16:14;4.30;;;3.50;;
8716;SDS011;4395;48.554;8.820;2023-05-07T04:18:17;3.40;;;3.10;;
8716;SDS011;4395;48.554;8.820;2023-05-07T04:20:21;3.73;;;3.10;;
8716;SDS011;4395;48.554;8.820;2023-05-07T04:22:31;3.50;;;3.20;;
8716;SDS011;4395;48.554;8.820;2023-05-07T04:24:34;4.77;;;3.50;;
8716;SDS011;4395;48.554;8.820;2023-05-07T04:26:39;3.90;;;3.50;;
8716;SDS011;4395;48.554;8.820;2023-05-07T04:28:43;4.05;;;3.60;;
8716;SDS011;4395;48.554;8.820;2023-05-07T04:30:46;3.42;;;3.13;;
8716;SDS011;4395;48.554;8.820;2023-05-07T04:32:49;4.20;;;3.53;;
8716;SDS011;4395;48.554;8.820;2023-05-07T04:34:52;3.85;;;3.40;;
8716;SDS011;4395;48.554;8.820;2023-05-07T04:36:57;4.20;;;3.63;;
8716;SDS011;4395;48.554;8.820;2023-05-07T04:39:02;3.10;;;2.90;;
8716;SDS011;4395;48.554;8.820;2023-05-07T04:41:05;3.67;;;3.38;;
8716;SDS011;4395;48.554;8.820;2023-05-07T04:43:14;4.93;;;3.30;;
8716;SDS011;4395;48.554;8.820;2023-05-07T04:45:22;4.57;;;3.75;;
8716;SDS011;4395;48.554;8.820;2023-05-07T04:47:28;3.65;;;3.35;;
8716;SDS011;4395;48.554;8.820;2023-05-07T04:49:32;4.07;;;3.70;;
8716;SDS011;4395;48.554;8.820;2023-05-07T04:51:35;5.70;;;3.80;;
8716;SDS011;4395;48.554;8.820;2023-05-07T04:53:37;4.03;;;3.40;;
8716;SDS011;4395;48.554;8.820;2023-05-07T04:55:41;5.40;;;3.83;;
8716;SDS011;4395;48.554;8.820;2023-05-07T04:57:44;5.80;;;3.53;;
8716;SDS011;4395;48.554;8.820;2023-05-07T04:59:50;5.97;;;3.50;;
8716;SDS011;4395;48.554;8.820;2023-05-07T05:01:53;5.40;;;3.57;;
8716;SDS011;4395;48.554;8.820;2023-05-07T05:03:57;5.07;;;4.67;;
8716;SDS011;4395;48.554;8.820;2023-05-07T05:06:01;4.60;;;4.20;;
8716;SDS011;4395;48.554;8.820;2023-05-07T05:08:07;4.43;;;4.03;;
8716;SDS011;4395;48.554;8.820;2023-05-07T05:10:14;4.87;;;3.90;;
8716;SDS011;4395;48.554;8.820;2023-05-07T05:12:18;5.43;;;3.97;;
8716;SDS011;4395;48.554;8.820;2023-05-07T05:14:21;3.60;;;3.30;;
8716;SDS011;4395;48.554;8.820;2023-05-07T05:16:26;2.17;;;2.00;;
8716;SDS011;4395;48.554;8.820;2023-05-07T05:18:29;2.70;;;2.13;;
8716;SDS011;4395;48.554;8.820;2023-05-07T05:20:32;2.53;;;2.03;;
8716;SDS011;4395;48.554;8.820;2023-05-07T05:22:34;3.83;;;2.67;;
8716;SDS011;4395;48.554;8.820;2023-05-07T05:24:37;3.13;;;2.60;;
8716;SDS011;4395;48.554;8.820;2023-05-07T05:26:40;3.93;;;2.20;;
8716;SDS011;4395;48.554;8.820;2023-05-07T05:28:43;2.60;;;2.40;;
8716;SDS011;4395;48.554;8.820;2023-05-07T05:30:46;2.47;;;2.27;;
8716;SDS011;4395;48.554;8.820;2023-05-07T05:32:50;3.07;;;2.50;;
8716;SDS011;4395;48.554;8.820;2023-05-07T05:34:54;3.20;;;2.77;;
8716;SDS011;4395;48.554;8.820;2023-05-07T05:36:58;2.70;;;2.50;;
8716;SDS011;4395;48.554;8.820;2023-05-07T05:39:01;4.03;;;3.30;;
8716;SDS011;4395;48.554;8.820;2023-05-07T05:41:04;6.07;;;3.70;;
8716;SDS011;4395;48.554;8.820;2023-05-07T05:43:07;4.87;;;3.20;;
8716;SDS011;4395;48.554;8.820;2023-05-07T05:45:11;4.13;;;3.50;;
8716;SDS011;4395;48.554;8.820;2023-05-07T05:47:14;4.97;;;3.23;;
8716;SDS011;4395;48.554;8.820;2023-05-07T05:49:19;4.27;;;3.20;;
8716;SDS011;4395;48.554;8.820;2023-05-07T05:51:25;3.90;;;3.60;;
8716;SDS011;4395;48.554;8.820;2023-05-07T05:53:28;3.80;;;3.20;;
8716;SDS011;4395;48.554;8.820;2023-05-07T05:55:32;3.67;;;3.33;;
8716;SDS011;4395;48.554;8.820;2023-05-07T05:57:35;4.47;;;3.50;;
8716;SDS011;4395;48.554;8.820;2023-05-07T05:59:38;5.03;;;3.57;;
8716;SDS011;4395;48.554;8.820;2023-05-07T06:01:42;4.37;;;3.83;;
8716;SDS011;4395;48.554;8.820;2023-05-07T06:03:45;4.83;;;3.63;;
8716;SDS011;4395;48.554;8.820;2023-05-07T06:05:50;5.87;;;4.00;;
8716;SDS011;4395;48.554;8.820;2023-05-07T06:07:55;3.70;;;3.40;;
8716;SDS011;4395;48.554;8.820;2023-05-07T06:10:01;5.80;;;3.77;;
8716;SDS011;4395;48.554;8.820;2023-05-07T06:12:06;4.10;;;3.60;;
8716;SDS011;4395;48.554;8.820;2023-05-07T06:14:10;3.90;;;3.50;;
8716;SDS011;4395;48.554;8.820;2023-05-07T06:16:13;3.93;;;3.63;;
8716;SDS011;4395;48.554;8.820;2023-05-07T06:18:17;4.03;;;3.73;;
8716;SDS011;4395;48.554;8.820;2023-05-07T06:20:20;4.10;;;3.70;;
8716;SDS011;4395;48.554;8.820;2023-05-07T06:22:26;3.77;;;3.43;;
8716;SDS011;4395;48.554;8.820;2023-05-07T06:24:29;3.87;;;3.57;;
8716;SDS011;4395;48.554;8.820;2023-05-07T06:26:32;4.37;;;3.73;;
8716;SDS011;4395;48.554;8.820;2023-05-07T06:28:34;4.03;;;3.57;;
8716;SDS011;4395;48.554;8.820;2023-05-07T06:30:42;7.17;;;3.90;;
8716;SDS011;4395;48.554;8.820;2023-05-07T06:32:45;4.03;;;3.60;;
8716;SDS011;4395;48.554;8.820;2023-05-07T06:34:49;3.90;;;3.60;;
8716;SDS011;4395;48.554;8.820;2023-05-07T06:36:52;8.53;;;5.07;;
8716;SDS011;4395;48.554;8.820;2023-05-07T06:39:06;12.53;;;7.03;;
8716;SDS011;4395;48.554;8.820;2023-05-07T06:41:10;10.23;;;7.07;;
8716;SDS011;4395;48.554;8.820;2023-05-07T06:43:13;6.03;;;5.00;;
8716;SDS011;4395;48.554;8.820;2023-05-07T06:45:22;4.60;;;4.20;;
8716;SDS011;4395;48.554;8.820;2023-05-07T06:47:28;3.83;;;3.53;;
8716;SDS011;4395;48.554;8.820;2023-05-07T06:49:31;4.40;;;3.83;;
8716;SDS011;4395;48.554;8.820;2023-05-07T06:51:34;5.50;;;4.23;;
8716;SDS011;4395;48.554;8.820;2023-05-07T06:53:37;5.60;;;4.20;;
8716;SDS011;4395;48.554;8.820;2023-05-07T06:55:44;4.10;;;3.70;;
8716;SDS011;4395;48.554;8.820;2023-05-07T06:57:48;3.93;;;3.60;;
8716;SDS011;4395;48.554;8.820;2023-05-07T06:59:52;4.17;;;3.80;;
8716;SDS011;4395;48.554;8.820;2023-05-07T07:01:56;4.90;;;3.93;;
8716;SDS011;4395;48.554;8.820;2023-05-07T07:03:58;6.07;;;4.30;;
8716;SDS011;4395;48.554;8.820;2023-05-07T07:06:03;5.67;;;4.20;;
8716;SDS011;4395;48.554;8.820;2023-05-07T07:08:06;4.43;;;4.03;;
8716;SDS011;4395;48.554;8.820;2023-05-07T07:10:10;4.30;;;3.80;;
8716;SDS011;4395;48.554;8.820;2023-05-07T07:12:15;5.67;;;4.90;;
8716;SDS011;4395;48.554;8.820;2023-05-07T07:14:17;4.93;;;4.17;;
8716;SDS011;4395;48.554;8.820;2023-05-07T07:16:24;4.70;;;3.83;;
8716;SDS011;4395;48.554;8.820;2023-05-07T07:18:26;4.50;;;3.93;;
8716;SDS011;4395;48.554;8.820;2023-05-07T07:20:30;3.60;;;3.30;;
8716;SDS011;4395;48.554;8.820;2023-05-07T07:22:33;3.70;;;3.40;;
8716;SDS011;4395;48.554;8.820;2023-05-07T07:24:36;4.97;;;3.60;;
8716;SDS011;4395;48.554;8.820;2023-05-07T07:26:41;4.17;;;3.77;;
8716;SDS011;4395;48.554;8.820;2023-05-07T07:28:45;4.50;;;4.10;;
8716;SDS011;4395;48.554;8.820;2023-05-07T07:30:52;4.07;;;3.70;;
8716;SDS011;4395;48.554;8.820;2023-05-07T07:32:55;4.73;;;3.60;;
8716;SDS011;4395;48.554;8.820;2023-05-07T07:35:06;3.90;;;3.60;;
8716;SDS011;4395;48.554;8.820;2023-05-07T07:37:11;4.20;;;3.77;;
8716;SDS011;4395;48.554;8.820;2023-05-07T07:39:14;3.80;;;3.50;;
8716;SDS011;4395;48.554;8.820;2023-05-07T07:41:17;3.93;;;3.63;;
8716;SDS011;4395;48.554;8.820;2023-05-07T07:43:21;4.30;;;3.90;;
8716;SDS011;4395;48.554;8.820;2023-05-07T07:48:20;7.07;;;6.37;;
8716;SDS011;4395;48.554;8.820;2023-05-07T07:50:24;5.00;;;4.60;;
8716;SDS011;4395;48.554;8.820;2023-05-07T07:52:44;5.17;;;4.37;;
8716;SDS011;4395;48.554;8.820;2023-05-07T07:54:50;4.37;;;3.97;;
8716;SDS011;4395;48.554;8.820;2023-05-07T07:56:53;5.70;;;4.00;;
8716;SDS011;4395;48.554;8.820;2023-05-07T07:58:57;4.20;;;3.90;;
8716;SDS011;4395;48.554;8.820;2023-05-07T08:01:00;4.90;;;4.40;;
8716;SDS011;4395;48.554;8.820;2023-05-07T08:03:02;5.47;;;4.33;;
8716;SDS011;4395;48.554;8.820;2023-05-07T08:05:12;4.37;;;3.97;;
8716;SDS011;4395;48.554;8.820;2023-05-07T08:07:15;4.60;;;4.20;;
8716;SDS011;4395;48.554;8.820;2023-05-07T08:09:21;4.80;;;4.00;;
8716;SDS011;4395;48.554;8.820;2023-05-07T08:11:25;4.30;;;3.90;;
8716;SDS011;4395;48.554;8.820;2023-05-07T08:13:29;4.30;;;3.90;;
8716;SDS011;4395;48.554;8.820;2023-05-07T08:15:33;4.87;;;3.97;;
8716;SDS011;4395;48.554;8.820;2023-05-07T08:17:36;4.73;;;4.10;;
8716;SDS011;4395;48.554;8.820;2023-05-07T08:19:39;4.33;;;3.93;;
8716;SDS011;4395;48.554;8.820;2023-05-07T08:21:47;4.63;;;4.20;;
8716;SDS011;4395;48.554;8.820;2023-05-07T08:23:51;5.23;;;4.20;;
8716;SDS011;4395;48.554;8.820;2023-05-07T08:25:54;4.50;;;4.10;;
8716;SDS011;4395;48.554;8.820;2023-05-07T08:27:57;3.90;;;3.50;;
8716;SDS011;4395;48.554;8.820;2023-05-07T08:30:00;3.47;;;3.17;;
8716;SDS011;4395;48.554;8.820;2023-05-07T08:32:04;5.03;;;4.40;;
8716;SDS011;4395;48.554;8.820;2023-05-07T08:34:06;3.60;;;3.30;;
8716;SDS011;4395;48.554;8.820;2023-05-07T08:36:14;5.23;;;3.30;;
8716;SDS011;4395;48.554;8.820;2023-05-07T08:38:18;4.17;;;3.50;;
8716;SDS011;4395;48.554;8.820;2023-05-07T08:40:21;4.07;;;3.70;;
8716;SDS011;4395;48.554;8.820;2023-05-07T08:42:28;3.80;;;3.50;;
8716;SDS011;4395;48.554;8.820;2023-05-07T08:44:33;3.80;;;3.47;;
8716;SDS011;4395;48.554;8.820;2023-05-07T08:46:37;4.80;;;3.80;;
8716;SDS011;4395;48.554;8.820;2023-05-07T08:48:42;4.40;;;4.00;;
8716;SDS011;4395;48.554;8.820;2023-05-07T08:50:48;6.67;;;3.80;;
8716;SDS011;4395;48.554;8.820;2023-05-07T08:52:51;5.07;;;4.00;;
8716;SDS011;4395;48.554;8.820;2023-05-07T08:54:57;5.77;;;4.47;;
8716;SDS011;4395;48.554;8.820;2023-05-07T08:57:01;5.00;;;4.40;;
8716;SDS011;4395;48.554;8.820;2023-05-07T08:59:07;8.90;;;3.77;;
8716;SDS011;4395;48.554;8.820;2023-05-07T09:01:10;5.10;;;3.80;;
8716;SDS011;4395;48.554;8.820;2023-05-07T09:03:18;7.20;;;3.90;;
8716;SDS011;4395;48.554;8.820;2023-05-07T09:05:24;3.63;;;3.40;;
8716;SDS011;4395;48.554;8.820;2023-05-07T09:07:28;4.40;;;3.70;;
8716;SDS011;4395;48.554;8.820;2023-05-07T09:09:32;3.83;;;3.37;;
8716;SDS011;4395;48.554;8.820;2023-05-07T09:11:39;4.10;;;3.70;;
8716;SDS011;4395;48.554;8.820;2023-05-07T09:13:42;4.23;;;3.80;;
8716;SDS011;4395;48.554;8.820;2023-05-07T09:15:45;3.70;;;3.40;;
8716;SDS011;4395;48.554;8.820;2023-05-07T09:17:49;4.00;;;3.70;;
8716;SDS011;4395;48.554;8.820;2023-05-07T09:19:52;4.10;;;3.70;;
8716;SDS011;4395;48.554;8.820;2023-05-07T09:21:58;4.13;;;3.83;;
8716;SDS011;4395;48.554;8.820;2023-05-07T09:24:05;4.83;;;4.10;;
8716;SDS011;4395;48.554;8.820;2023-05-07T09:26:12;4.20;;;3.90;;
8716;SDS011;4395;48.554;8.820;2023-05-07T09:28:18;5.07;;;4.03;;
8716;SDS011;4395;48.554;8.820;2023-05-07T09:30:21;7.23;;;5.23;;
8716;SDS011;4395;48.554;8.820;2023-05-07T09:32:24;6.67;;;5.87;;
8716;SDS011;4395;48.554;8.820;2023-05-07T09:34:31;7.30;;;4.23;;
8716;SDS011;4395;48.554;8.820;2023-05-07T09:36:35;5.40;;;3.90;;
8716;SDS011;4395;48.554;8.820;2023-05-07T09:38:38;5.60;;;3.80;;
8716;SDS011;4395;48.554;8.820;2023-05-07T09:40:42;4.33;;;3.93;;
8716;SDS011;4395;48.554;8.820;2023-05-07T09:42:48;5.03;;;4.30;;
8716;SDS011;4395;48.554;8.820;2023-05-07T09:44:52;4.13;;;3.70;;
8716;SDS011;4395;48.554;8.820;2023-05-07T09:46:59;4.37;;;4.00;;
8716;SDS011;4395;48.554;8.820;2023-05-07T09:49:11;3.90;;;3.53;;
8716;SDS011;4395;48.554;8.820;2023-05-07T09:51:22;4.80;;;4.40;;
8716;SDS011;4395;48.554;8.820;2023-05-07T09:53:29;4.83;;;4.37;;
8716;SDS011;4395;48.554;8.820;2023-05-07T09:55:35;4.73;;;3.80;;
8716;SDS011;4395;48.554;8.820;2023-05-07T09:57:39;4.63;;;3.47;;
8716;SDS011;4395;48.554;8.820;2023-05-07T09:59:44;4.63;;;4.10;;
8716;SDS011;4395;48.554;8.820;2023-05-07T10:01:52;5.70;;;3.80;;
8716;SDS011;4395;48.554;8.820;2023-05-07T10:04:01;8.03;;;7.23;;
8716;SDS011;4395;48.554;8.820;2023-05-07T10:06:07;3.33;;;2.97;;
8716;SDS011;4395;48.554;8.820;2023-05-07T10:08:11;3.93;;;3.10;;
8716;SDS011;4395;48.554;8.820;2023-05-07T10:10:15;3.33;;;3.03;;
8716;SDS011;4395;48.554;8.820;2023-05-07T10:12:20;3.70;;;3.40;;
8716;SDS011;4395;48.554;8.820;2023-05-07T10:14:24;3.37;;;3.17;;
8716;SDS011;4395;48.554;8.820;2023-05-07T10:16:27;5.03;;;4.40;;
8716;SDS011;4395;48.554;8.820;2023-05-07T10:18:32;3.17;;;2.97;;
8716;SDS011;4395;48.554;8.820;2023-05-07T10:20:42;3.03;;;2.80;;
8716;SDS011;4395;48.554;8.820;2023-05-07T10:22:48;5.47;;;2.87;;
8716;SDS011;4395;48.554;8.820;2023-05-07T10:24:59;3.10;;;2.87;;
8716;SDS011;4395;48.554;8.820;2023-05-07T10:27:10;3.00;;;2.80;;
8716;SDS011;4395;48.554;8.820;2023-05-07T10:29:21;3.07;;;2.77;;
8716;SDS011;4395;48.554;8.820;2023-05-07T10:31:49;3.63;;;3.27;;
8716;SDS011;4395;48.554;8.820;2023-05-07T10:33:59;4.03;;;2.87;;
8716;SDS011;4395;48.554;8.820;2023-05-07T10:36:04;3.57;;;2.80;;
8716;SDS011;4395;48.554;8.820;2023-05-07T10:38:09;3.23;;;2.80;;
8716;SDS011;4395;48.554;8.820;2023-05-07T10:40:15;2.80;;;2.60;;
8716;SDS011;4395;48.554;8.820;2023-05-07T10:42:19;4.27;;;2.50;;
8716;SDS011;4395;48.554;8.820;2023-05-07T10:44:26;3.13;;;2.87;;
8716;SDS011;4395;48.554;8.820;2023-05-07T10:46:34;2.60;;;2.40;;
8716;SDS011;4395;48.554;8.820;2023-05-07T10:49:08;3.40;;;2.70;;
8716;SDS011;4395;48.554;8.820;2023-05-07T10:51:21;3.37;;;2.67;;
8716;SDS011;4395;48.554;8.820;2023-05-07T10:53:41;3.67;;;3.07;;
8716;SDS011;4395;48.554;8.820;2023-05-07T10:55:50;3.30;;;2.60;;
8716;SDS011;4395;48.554;8.820;2023-05-07T11:00:45;3.20;;;2.90;;
8716;SDS011;4395;48.554;8.820;2023-05-07T11:03:06;5.73;;;2.67;;
8716;SDS011;4395;48.554;8.820;2023-05-07T11:05:20;3.63;;;2.50;;
8716;SDS011;4395;48.554;8.820;2023-05-07T11:07:33;4.53;;;2.53;;
8716;SDS011;4395;48.554;8.820;2023-05-07T11:09:55;2.67;;;2.47;;
8716;SDS011;4395;48.554;8.820;2023-05-07T11:15:14;3.37;;;2.50;;
8716;SDS011;4395;48.554;8.820;2023-05-07T11:17:18;5.23;;;2.70;;
8716;SDS011;4395;48.554;8.820;2023-05-07T11:21:53;4.17;;;3.57;;
8716;SDS011;4395;48.554;8.820;2023-05-07T11:24:11;4.40;;;2.73;;
8716;SDS011;4395;48.554;8.820;2023-05-07T11:26:28;3.50;;;2.77;;
8716;SDS011;4395;48.554;8.820;2023-05-07T11:28:36;2.90;;;2.60;;
8716;SDS011;4395;48.554;8.820;2023-05-07T11:30:41;3.90;;;2.87;;
8716;SDS011;4395;48.554;8.820;2023-05-07T11:32:47;3.80;;;3.10;;
8716;SDS011;4395;48.554;8.820;2023-05-07T11:34:52;3.70;;;3.10;;
8716;SDS011;4395;48.554;8.820;2023-05-07T11:36:56;3.90;;;2.53;;
8716;SDS011;4395;48.554;8.820;2023-05-07T11:39:28;3.30;;;2.53;;
8716;SDS011;4395;48.554;8.820;2023-05-07T11:41:33;3.53;;;2.80;;
8716;SDS011;4395;48.554;8.820;2023-05-07T11:43:37;3.27;;;2.40;;
8716;SDS011;4395;48.554;8.820;2023-05-07T11:45:41;4.00;;;2.30;;
8716;SDS011;4395;48.554;8.820;2023-05-07T11:47:44;3.67;;;2.30;;
8716;SDS011;4395;48.554;8.820;2023-05-07T11:49:47;3.27;;;2.27;;
8716;SDS011;4395;48.554;8.820;2023-05-07T11:51:50;2.20;;;2.00;;
8716;SDS011;4395;48.554;8.820;2023-05-07T11:53:55;2.53;;;1.90;;
8716;SDS011;4395;48.554;8.820;2023-05-07T11:55:58;3.37;;;2.10;;
8716;SDS011;4395;48.554;8.820;2023-05-07T11:58:00;2.30;;;2.10;;
8716;SDS011;4395;48.554;8.820;2023-05-07T12:00:03;1.83;;;1.73;;
8716;SDS011;4395;48.554;8.820;2023-05-07T12:02:13;2.80;;;2.20;;
8716;SDS011;4395;48.554;8.820;2023-05-07T12:04:19;2.50;;;2.30;;
8716;SDS011;4395;48.554;8.820;2023-05-07T12:06:22;2.33;;;1.97;;
8716;SDS011;4395;48.554;8.820;2023-05-07T12:08:25;2.47;;;2.23;;
8716;SDS011;4395;48.554;8.820;2023-05-07T12:10:29;2.57;;;2.37;;
8716;SDS011;4395;48.554;8.820;2023-05-07T12:12:37;2.77;;;2.30;;
8716;SDS011;4395;48.554;8.820;2023-05-07T12:14:41;3.67;;;2.30;;
8716;SDS011;4395;48.554;8.820;2023-05-07T12:16:44;3.70;;;2.40;;
8716;SDS011;4395;48.554;8.820;2023-05-07T12:18:48;3.00;;;2.07;;
8716;SDS011;4395;48.554;8.820;2023-05-07T12:20:51;2.20;;;2.10;;
8716;SDS011;4395;48.554;8.820;2023-05-07T12:22:54;2.33;;;2.10;;
8716;SDS011;4395;48.554;8.820;2023-05-07T12:24:57;2.63;;;2.20;;
8716;SDS011;4395;48.554;8.820;2023-05-07T12:27:02;2.93;;;2.20;;
8716;SDS011;4395;48.554;8.820;2023-05-07T12:29:05;3.93;;;2.27;;
8716;SDS011;4395;48.554;8.820;2023-05-07T12:31:08;2.67;;;2.20;;
8716;SDS011;4395;48.554;8.820;2023-05-07T12:33:12;2.97;;;2.37;;
8716;SDS011;4395;48.554;8.820;2023-05-07T12:35:25;4.20;;;2.33;;
8716;SDS011;4395;48.554;8.820;2023-05-07T12:37:29;3.63;;;2.30;;
8716;SDS011;4395;48.554;8.820;2023-05-07T12:39:32;3.57;;;2.50;;
8716;SDS011;4395;48.554;8.820;2023-05-07T12:41:36;3.10;;;2.80;;
8716;SDS011;4395;48.554;8.820;2023-05-07T12:43:57;7.23;;;3.70;;
8716;SDS011;4395;48.554;8.820;2023-05-07T12:46:00;5.70;;;3.37;;
8716;SDS011;4395;48.554;8.820;2023-05-07T12:48:05;3.37;;;2.90;;
8716;SDS011;4395;48.554;8.820;2023-05-07T12:50:08;7.90;;;3.23;;
8716;SDS011;4395;48.554;8.820;2023-05-07T12:52:11;5.37;;;3.33;;
8716;SDS011;4395;48.554;8.820;2023-05-07T12:54:27;7.27;;;3.27;;
8716;SDS011;4395;48.554;8.820;2023-05-07T12:56:30;3.53;;;2.90;;
8716;SDS011;4395;48.554;8.820;2023-05-07T12:58:33;9.97;;;3.80;;
8716;SDS011;4395;48.554;8.820;2023-05-07T13:00:38;7.73;;;3.40;;
8716;SDS011;4395;48.554;8.820;2023-05-07T13:02:42;6.17;;;3.43;;
8716;SDS011;4395;48.554;8.820;2023-05-07T13:04:46;3.77;;;2.83;;
8716;SDS011;4395;48.554;8.820;2023-05-07T13:06:49;5.10;;;3.13;;
8716;SDS011;4395;48.554;8.820;2023-05-07T13:08:51;7.03;;;2.97;;